Decoded Metar for CYBQ ( in ) (IATA:) | Meteo·Mobile Aviation Weather
aviador You're here:

CYBQ Decoded Metar

in
Report Time2018-12-15 17:00:00
UTC Time2018-12-15 18:11:18
Flight Rules Old
Wind080° at 11 Gusting to 16 kt
W.Decomp.*RWY 07: 10.8 kt HW 1.9 kt RCW
W.Rank080° ranks 21
Current wind is above 080° avg. (7.1)
Visibility9999 m
Phenomena:Light Snow
Clouds:Overcast 009 Hf
Expected CloudBase > 400 ft AGL from Temp-Dew spread
Ceiling900 ft
Temp-13°C
Dew Point-14°C (92% RH)
AAT-20.3°C
QNH995 hPa
Raw Report
METAR CYBQ 151700Z AUTO 08011G16KT 9SM -SN OVC009 M13/M14 A2939 RMK SLP984=

Extra information for CYBQ:More info

Social comments